createdAt,value
2022-11-04T00:01:41.224Z,1.53
2022-11-04T00:04:08.186Z,1.10
2022-11-04T00:06:35.384Z,1.20
2022-11-04T00:09:02.680Z,0.97
2022-11-04T00:11:48.578Z,1.90
2022-11-04T00:14:15.702Z,1.80
2022-11-04T00:17:01.679Z,1.77
2022-11-04T00:19:28.964Z,1.80
2022-11-04T00:22:14.914Z,1.63
2022-11-04T00:25:00.274Z,1.60
2022-11-04T00:27:46.510Z,1.47
2022-11-04T00:30:13.581Z,1.30
2022-11-04T00:32:59.355Z,1.77
2022-11-04T00:35:26.452Z,1.70
2022-11-04T00:37:53.526Z,1.60
2022-11-04T00:40:20.619Z,1.83
2022-11-04T00:42:47.805Z,1.57
2022-11-04T00:45:15.167Z,1.50
2022-11-04T00:47:42.233Z,1.97
2022-11-04T00:50:09.789Z,1.70
2022-11-04T00:52:37.078Z,1.80
2022-11-04T00:55:04.393Z,1.90
2022-11-04T00:57:31.686Z,2.40
2022-11-04T00:59:59.051Z,2.87
2022-11-04T01:02:26.820Z,2.90
2022-11-04T01:04:54.034Z,3.03
2022-11-04T01:07:21.224Z,3.43
2022-11-04T01:09:49.394Z,3.27
2022-11-04T01:12:17.074Z,3.40
2022-11-04T01:14:44.288Z,3.83
2022-11-04T01:17:11.422Z,4.07
2022-11-04T01:19:38.552Z,3.93
2022-11-04T01:22:05.250Z,3.73
2022-11-04T01:24:31.925Z,4.00
2022-11-04T01:26:58.746Z,3.23
2022-11-04T01:29:25.695Z,3.63
2022-11-04T01:31:52.767Z,3.57
2022-11-04T01:34:20.114Z,3.37
2022-11-04T01:36:46.829Z,2.40
2022-11-04T01:39:14.684Z,2.53
2022-11-04T01:41:41.470Z,3.13
2022-11-04T01:44:42.339Z,3.00
2022-11-04T01:47:19.853Z,2.50
2022-11-04T01:49:51.912Z,2.70
2022-11-04T01:52:31.680Z,2.57
2022-11-04T01:55:02.662Z,3.10
2022-11-04T01:57:35.685Z,2.80
2022-11-04T02:00:06.302Z,3.50
2022-11-04T02:02:33.575Z,2.70
2022-11-04T02:05:00.335Z,2.57
2022-11-04T02:07:28.909Z,2.70
2022-11-04T02:09:56.034Z,2.73
2022-11-04T02:12:41.521Z,2.73
2022-11-04T02:15:08.650Z,2.80
2022-11-04T02:17:53.177Z,2.63
2022-11-04T02:20:29.089Z,2.83
2022-11-04T02:23:17.185Z,3.23
2022-11-04T02:26:11.552Z,3.20
2022-11-04T02:28:38.409Z,3.50
2022-11-04T02:31:13.981Z,4.03
2022-11-04T02:33:43.656Z,4.43
2022-11-04T02:36:15.588Z,5.20
2022-11-04T02:39:00.648Z,4.77
2022-11-04T02:41:30.268Z,5.23
2022-11-04T02:44:06.405Z,4.27
2022-11-04T02:46:36.474Z,4.03
2022-11-04T02:49:07.331Z,4.00
2022-11-04T02:51:40.415Z,4.10
2022-11-04T02:54:10.545Z,3.80
2022-11-04T02:56:40.762Z,4.07
2022-11-04T02:59:14.603Z,4.30
2022-11-04T03:01:44.054Z,4.00
2022-11-04T03:04:15.918Z,3.90
2022-11-04T03:06:44.724Z,4.10
2022-11-04T03:09:12.949Z,3.83
2022-11-04T03:11:41.602Z,4.50
2022-11-04T03:14:11.645Z,4.80
2022-11-04T03:16:43.439Z,4.43
2022-11-04T03:19:10.593Z,4.70
2022-11-04T03:21:39.446Z,4.17
2022-11-04T03:24:06.897Z,3.97
2022-11-04T03:26:59.368Z,4.20
2022-11-04T03:29:55.160Z,4.47
2022-11-04T03:32:39.100Z,4.53
2022-11-04T03:35:06.908Z,4.67
2022-11-04T03:37:34.621Z,4.93
2022-11-04T03:40:01.867Z,5.20
2022-11-04T03:42:29.557Z,4.60
2022-11-04T03:44:57.768Z,4.87
2022-11-04T03:47:26.330Z,3.67
2022-11-04T03:49:56.823Z,4.03
2022-11-04T03:52:24.237Z,3.13
2022-11-04T03:54:51.337Z,3.13
2022-11-04T03:57:38.805Z,3.40
2022-11-04T04:00:10.320Z,3.47
2022-11-04T04:02:49.609Z,3.27
2022-11-04T04:05:25.546Z,3.00
2022-11-04T04:07:56.588Z,3.50
2022-11-04T04:10:40.419Z,2.77
2022-11-04T04:13:14.867Z,3.53
2022-11-04T04:16:02.240Z,3.43
2022-11-04T04:18:38.530Z,4.20
2022-11-04T04:21:10.868Z,2.83
2022-11-04T04:23:57.488Z,2.80
2022-11-04T04:26:43.607Z,2.53
2022-11-04T04:29:11.526Z,3.03
2022-11-04T04:31:57.773Z,3.40
2022-11-04T04:34:29.031Z,2.90
2022-11-04T04:37:04.121Z,2.47
2022-11-04T04:40:02.466Z,2.80
2022-11-04T04:42:54.706Z,2.60
2022-11-04T04:45:31.334Z,2.87
2022-11-04T04:47:58.579Z,2.30
2022-11-04T04:50:27.261Z,2.73
2022-11-04T04:52:55.225Z,2.17
2022-11-04T04:55:22.366Z,1.97
2022-11-04T04:57:49.463Z,1.80
2022-11-04T05:00:18.076Z,1.70
2022-11-04T05:02:47.076Z,1.87
2022-11-04T05:07:46.408Z,1.60
2022-11-04T05:10:14.360Z,1.83
2022-11-04T05:13:00.150Z,1.57
2022-11-04T05:15:27.763Z,1.70
2022-11-04T05:17:55.596Z,2.13
2022-11-04T05:20:23.097Z,2.00
2022-11-04T05:22:50.562Z,2.10
2022-11-04T05:25:18.088Z,2.10
2022-11-04T05:27:45.187Z,1.60
2022-11-04T05:30:12.395Z,2.10
2022-11-04T05:32:39.534Z,2.07
2022-11-04T05:35:06.912Z,1.83
2022-11-04T05:37:33.578Z,2.27
2022-11-04T05:40:00.359Z,1.90
2022-11-04T05:42:27.189Z,2.07
2022-11-04T05:44:53.901Z,2.53
2022-11-04T05:47:20.575Z,2.80
2022-11-04T05:49:47.385Z,2.53
2022-11-04T05:52:17.143Z,2.73
2022-11-04T05:54:43.920Z,2.60
2022-11-04T05:57:11.516Z,2.70
2022-11-04T05:59:38.674Z,2.97
2022-11-04T06:02:06.039Z,3.47
2022-11-04T06:04:33.485Z,2.80
2022-11-04T06:07:00.671Z,2.90
2022-11-04T06:09:39.781Z,2.90
2022-11-04T06:12:08.258Z,2.63
2022-11-04T06:14:35.352Z,3.00
2022-11-04T06:17:02.628Z,2.70
2022-11-04T06:19:29.897Z,2.60
2022-11-04T06:21:57.092Z,2.83
2022-11-04T06:24:24.193Z,2.53
2022-11-04T06:26:51.253Z,3.73
2022-11-04T06:29:18.695Z,2.87
2022-11-04T06:31:45.879Z,3.70
2022-11-04T06:34:12.970Z,3.67
2022-11-04T06:36:40.082Z,2.80
2022-11-04T06:39:07.211Z,3.80
2022-11-04T06:41:34.639Z,3.63
2022-11-04T06:44:01.745Z,3.00
2022-11-04T06:46:31.023Z,2.90
2022-11-04T06:48:58.124Z,2.60
2022-11-04T06:51:25.831Z,2.63
2022-11-04T06:53:52.973Z,2.60
2022-11-04T06:56:20.215Z,2.77
2022-11-04T06:58:54.314Z,2.07
2022-11-04T07:01:22.651Z,2.70
2022-11-04T07:03:50.824Z,3.37
2022-11-04T07:06:18.194Z,2.90
2022-11-04T07:08:45.548Z,2.57
2022-11-04T07:11:13.096Z,2.20
2022-11-04T07:13:41.191Z,2.23
2022-11-04T07:16:09.407Z,2.47
2022-11-04T07:18:36.710Z,2.60
2022-11-04T07:21:08.794Z,2.30
2022-11-04T07:23:37.328Z,1.87
2022-11-04T07:26:05.462Z,2.50
2022-11-04T07:28:32.543Z,2.30
2022-11-04T07:31:00.267Z,2.30
2022-11-04T07:33:27.882Z,2.20
2022-11-04T07:35:58.289Z,2.67
2022-11-04T07:38:25.740Z,3.17
2022-11-04T07:40:52.968Z,2.13
2022-11-04T07:43:20.071Z,4.77
2022-11-04T07:45:47.400Z,5.07
2022-11-04T07:48:14.547Z,2.93
2022-11-04T07:50:41.633Z,2.90
2022-11-04T07:53:09.031Z,2.03
2022-11-04T07:55:43.083Z,2.63
2022-11-04T07:58:10.575Z,2.50
2022-11-04T08:00:40.165Z,2.27
2022-11-04T08:03:07.452Z,2.20
2022-11-04T08:05:35.081Z,2.10
2022-11-04T08:08:02.354Z,1.80
2022-11-04T08:10:30.041Z,2.43
2022-11-04T08:12:57.530Z,4.13
2022-11-04T08:15:24.769Z,2.77
2022-11-04T08:17:52.061Z,2.90
2022-11-04T08:20:19.136Z,2.40
2022-11-04T08:22:46.413Z,2.30
2022-11-04T08:25:13.845Z,2.00
2022-11-04T08:27:41.101Z,2.63
2022-11-04T08:30:08.881Z,2.50
2022-11-04T08:32:36.032Z,5.87
2022-11-04T08:35:03.358Z,3.93
2022-11-04T08:37:30.501Z,2.80
2022-11-04T08:39:57.685Z,2.33
2022-11-04T08:42:26.133Z,1.97
2022-11-04T08:44:53.248Z,2.43
2022-11-04T08:47:20.382Z,2.23
2022-11-04T08:49:47.443Z,2.60
2022-11-04T08:52:14.540Z,2.30
2022-11-04T08:54:41.853Z,2.53
2022-11-04T08:57:09.345Z,2.57
2022-11-04T08:59:40.244Z,3.10
2022-11-04T09:02:09.904Z,2.90
2022-11-04T09:04:37.022Z,2.73
2022-11-04T09:07:08.218Z,3.20
2022-11-04T09:09:35.625Z,2.70
2022-11-04T09:12:02.753Z,2.53
2022-11-04T09:14:29.840Z,3.27
2022-11-04T09:16:56.961Z,2.87
2022-11-04T09:19:24.180Z,2.63
2022-11-04T09:21:51.302Z,3.27
2022-11-04T09:24:18.382Z,3.63
2022-11-04T09:26:45.517Z,2.40
2022-11-04T09:29:12.781Z,2.27
2022-11-04T09:31:40.497Z,2.53
2022-11-04T09:34:08.587Z,2.00
2022-11-04T09:36:37.505Z,3.50
2022-11-04T09:39:10.075Z,2.90
2022-11-04T09:41:37.201Z,2.47
2022-11-04T09:44:25.691Z,2.57
2022-11-04T09:46:54.333Z,3.70
2022-11-04T09:49:21.744Z,2.53
2022-11-04T09:51:56.556Z,3.27
2022-11-04T09:54:25.281Z,2.63
2022-11-04T09:56:53.194Z,3.83
2022-11-04T09:59:31.981Z,2.50
2022-11-04T10:01:59.608Z,3.50
2022-11-04T10:04:35.558Z,2.80
2022-11-04T10:07:11.286Z,2.03
2022-11-04T10:09:38.438Z,1.83
2022-11-04T10:12:24.574Z,2.53
2022-11-04T10:15:11.460Z,1.20
2022-11-04T10:17:38.523Z,1.70
2022-11-04T10:20:18.033Z,1.80
2022-11-04T10:23:07.777Z,5.87
2022-11-04T10:25:35.116Z,3.70
2022-11-04T10:28:03.011Z,1.53
2022-11-04T10:30:32.012Z,1.73
2022-11-04T10:33:14.389Z,2.13
2022-11-04T10:35:43.071Z,1.88
2022-11-04T10:38:24.978Z,1.45
2022-11-04T10:40:53.242Z,1.60
2022-11-04T10:43:27.206Z,1.88
2022-11-04T10:46:00.523Z,2.42
2022-11-04T10:48:49.137Z,1.70
2022-11-04T10:51:22.100Z,2.10
2022-11-04T10:53:56.807Z,4.53
2022-11-04T10:56:30.374Z,1.90
2022-11-04T10:58:58.059Z,2.30
2022-11-04T11:01:33.136Z,2.60
2022-11-04T11:04:01.361Z,2.70
2022-11-04T11:06:28.556Z,2.42
2022-11-04T11:08:58.091Z,3.05
2022-11-04T11:11:48.381Z,2.90
2022-11-04T11:14:30.958Z,3.17
2022-11-04T11:16:59.233Z,3.50
2022-11-04T11:19:26.646Z,2.80
2022-11-04T11:21:55.203Z,2.90
2022-11-04T11:24:23.767Z,2.73
2022-11-04T11:26:52.881Z,2.33
2022-11-04T11:29:24.921Z,2.83
2022-11-04T11:31:52.529Z,4.57
2022-11-04T11:34:22.638Z,2.60
2022-11-04T11:36:50.571Z,3.10
2022-11-04T11:39:21.913Z,3.20
2022-11-04T11:41:54.321Z,3.27
2022-11-04T11:44:21.858Z,3.10
2022-11-04T11:46:56.138Z,2.80
2022-11-04T11:49:27.140Z,3.27
2022-11-04T11:51:53.871Z,2.97
2022-11-04T11:54:33.744Z,2.50
2022-11-04T11:57:15.317Z,2.80
2022-11-04T12:03:17.691Z,2.70
2022-11-04T12:06:18.308Z,2.60
2022-11-04T12:09:17.456Z,2.83
2022-11-04T12:11:57.972Z,3.63
2022-11-04T12:14:31.104Z,3.17
2022-11-04T12:17:32.612Z,3.40
2022-11-04T12:20:21.090Z,7.30
2022-11-04T12:22:53.409Z,3.50
2022-11-04T12:25:46.842Z,3.58
2022-11-04T12:28:28.779Z,4.05
2022-11-04T12:31:24.727Z,4.60
2022-11-04T12:33:54.417Z,3.70
2022-11-04T12:36:47.604Z,4.30
2022-11-04T12:39:17.425Z,3.70
2022-11-04T12:42:20.172Z,3.92
2022-11-04T12:45:22.844Z,3.58
2022-11-04T12:47:49.622Z,3.45
2022-11-04T12:50:34.906Z,4.00
2022-11-04T12:53:16.350Z,4.75
2022-11-04T12:55:44.189Z,4.07
2022-11-04T12:58:29.373Z,6.07
2022-11-04T13:01:14.999Z,5.20
2022-11-04T13:04:14.746Z,3.60
2022-11-04T13:06:56.630Z,3.10
2022-11-04T13:09:50.975Z,2.95
2022-11-04T13:12:39.941Z,2.78
2022-11-04T13:15:18.644Z,2.50
2022-11-04T13:17:47.517Z,2.75
2022-11-04T13:20:26.464Z,2.75
2022-11-04T13:22:58.987Z,2.40
2022-11-04T13:25:40.604Z,3.42
2022-11-04T13:28:15.217Z,3.05
2022-11-04T13:30:51.189Z,2.53
2022-11-04T13:33:33.387Z,2.80
2022-11-04T13:36:13.122Z,2.58
2022-11-04T13:38:45.487Z,2.85
2022-11-04T13:41:42.435Z,2.78
2022-11-04T13:44:28.881Z,2.70
2022-11-04T13:47:01.481Z,1.98
2022-11-04T13:49:33.544Z,2.78
2022-11-04T13:52:12.490Z,3.08
2022-11-04T13:54:47.184Z,2.25
2022-11-04T13:57:18.059Z,2.25
2022-11-04T14:00:09.281Z,2.55
2022-11-04T14:02:44.401Z,2.35
2022-11-04T14:05:29.794Z,2.33
2022-11-04T14:07:59.697Z,2.17
2022-11-04T14:10:50.949Z,1.88
2022-11-04T14:13:41.143Z,1.70
2022-11-04T14:16:17.777Z,2.15
2022-11-04T14:18:49.263Z,1.90
2022-11-04T14:21:18.837Z,2.22
2022-11-04T14:23:48.893Z,1.48
2022-11-04T14:26:18.517Z,1.27
2022-11-04T14:29:02.067Z,1.40
2022-11-04T14:31:45.805Z,1.40
2022-11-04T14:34:36.550Z,1.58
2022-11-04T14:37:25.288Z,2.03
2022-11-04T14:39:57.668Z,1.75
2022-11-04T14:42:42.524Z,1.45
2022-11-04T14:45:18.239Z,1.75
2022-11-04T14:47:52.603Z,1.80
2022-11-04T14:50:24.239Z,1.70
2022-11-04T14:53:05.397Z,2.38
2022-11-04T14:55:33.023Z,2.03
2022-11-04T14:58:29.114Z,2.33
2022-11-04T15:00:59.894Z,3.25
2022-11-04T15:04:10.927Z,2.35
2022-11-04T15:06:34.895Z,2.43
2022-11-04T15:09:22.190Z,3.80
2022-11-04T15:12:07.517Z,3.53
2022-11-04T15:14:37.561Z,2.77
2022-11-04T15:17:04.791Z,3.27
2022-11-04T15:19:56.392Z,3.57
2022-11-04T15:22:24.217Z,3.30
2022-11-04T15:24:51.630Z,3.57
2022-11-04T15:27:24.422Z,3.23
2022-11-04T15:30:04.569Z,3.03
2022-11-04T15:32:32.280Z,3.00
2022-11-04T15:34:59.846Z,3.13
2022-11-04T15:37:28.918Z,4.50
2022-11-04T15:39:57.769Z,3.77
2022-11-04T15:42:40.658Z,3.80
2022-11-04T15:45:22.997Z,3.20
2022-11-04T15:48:10.101Z,3.80
2022-11-04T15:50:37.468Z,5.50
2022-11-04T15:53:10.500Z,5.30
2022-11-04T15:55:38.569Z,5.30
2022-11-04T15:58:05.470Z,4.27
2022-11-04T16:00:34.116Z,6.00
2022-11-04T16:03:01.708Z,6.10
2022-11-04T16:05:33.476Z,6.50
2022-11-04T16:08:21.134Z,6.70
2022-11-04T16:10:48.489Z,5.13
2022-11-04T16:13:18.199Z,6.20
2022-11-04T16:15:57.209Z,5.63
2022-11-04T16:18:32.089Z,5.90
2022-11-04T16:21:02.933Z,10.20
2022-11-04T16:23:30.067Z,7.10
2022-11-04T16:26:06.271Z,6.67
2022-11-04T16:28:38.498Z,7.67
2022-11-04T16:31:33.574Z,7.50
2022-11-04T16:34:00.892Z,7.57
2022-11-04T16:36:34.052Z,7.00
2022-11-04T16:39:04.831Z,8.00
2022-11-04T16:41:36.360Z,9.00
2022-11-04T16:44:05.358Z,8.40
2022-11-04T16:46:35.248Z,8.23
2022-11-04T16:49:02.132Z,8.00
2022-11-04T16:51:28.954Z,8.97
2022-11-04T16:53:55.825Z,8.13
2022-11-04T16:56:24.714Z,9.30
2022-11-04T16:58:52.657Z,7.97
2022-11-04T17:01:21.327Z,8.70
2022-11-04T17:03:48.298Z,7.97
2022-11-04T17:06:16.304Z,7.73
2022-11-04T17:08:43.698Z,8.77
2022-11-04T17:11:12.496Z,9.53
2022-11-04T17:13:39.715Z,8.77
2022-11-04T17:16:10.379Z,10.03
2022-11-04T17:18:37.388Z,10.80
2022-11-04T17:21:11.302Z,11.77
2022-11-04T17:23:38.332Z,11.67
2022-11-04T17:26:05.355Z,11.97
2022-11-04T17:28:33.549Z,12.23
2022-11-04T17:31:02.640Z,12.47
2022-11-04T17:33:29.649Z,13.23
2022-11-04T17:35:57.083Z,13.50
2022-11-04T17:38:24.057Z,13.37
2022-11-04T17:41:09.532Z,11.93
2022-11-04T17:43:54.918Z,12.77
2022-11-04T17:46:41.823Z,12.63
2022-11-04T17:49:12.844Z,12.97
2022-11-04T17:51:41.872Z,12.87
2022-11-04T17:54:10.648Z,12.57
2022-11-04T17:56:38.117Z,14.50
2022-11-04T17:59:05.374Z,13.20
2022-11-04T18:01:33.514Z,13.50
2022-11-04T18:04:00.452Z,14.03
2022-11-04T18:06:31.192Z,12.97
2022-11-04T18:08:58.301Z,13.60
2022-11-04T18:11:46.379Z,14.07
2022-11-04T18:14:17.050Z,14.43
2022-11-04T18:16:46.613Z,15.27
2022-11-04T18:19:14.320Z,14.03
2022-11-04T18:21:41.346Z,15.77
2022-11-04T18:24:08.752Z,14.83
2022-11-04T18:26:36.062Z,15.43
2022-11-04T18:29:03.712Z,14.43
2022-11-04T18:31:33.175Z,14.53
2022-11-04T18:34:02.199Z,15.13
2022-11-04T18:36:29.939Z,14.97
2022-11-04T18:38:57.515Z,15.07
2022-11-04T18:41:24.488Z,16.47
2022-11-04T18:43:51.760Z,16.70
2022-11-04T18:46:19.426Z,16.97
2022-11-04T18:48:50.713Z,17.33
2022-11-04T18:51:23.503Z,16.20
2022-11-04T18:53:51.484Z,17.13
2022-11-04T18:56:23.347Z,15.30
2022-11-04T18:58:51.304Z,15.67
2022-11-04T19:01:20.801Z,14.50
2022-11-04T19:03:48.731Z,15.23
2022-11-04T19:06:19.065Z,17.30
2022-11-04T19:08:47.120Z,16.83
2022-11-04T19:11:23.319Z,16.37
2022-11-04T19:13:58.800Z,16.93
2022-11-04T19:16:26.915Z,17.47
2022-11-04T19:18:55.110Z,16.77
2022-11-04T19:21:23.993Z,16.33
2022-11-04T19:23:51.249Z,17.50
2022-11-04T19:26:21.618Z,16.60
2022-11-04T19:28:49.980Z,18.87
2022-11-04T19:31:22.983Z,16.33
2022-11-04T19:33:50.704Z,18.20
2022-11-04T19:36:19.909Z,16.43
2022-11-04T19:38:47.347Z,17.87
2022-11-04T19:41:35.448Z,17.73
2022-11-04T19:44:04.692Z,17.93
2022-11-04T19:46:32.528Z,17.03
2022-11-04T19:49:00.702Z,16.60
2022-11-04T19:51:31.986Z,18.03
2022-11-04T19:53:59.453Z,17.23
2022-11-04T19:56:26.705Z,17.27
2022-11-04T19:58:53.996Z,16.63
2022-11-04T20:01:21.461Z,17.13
2022-11-04T20:03:48.594Z,16.50
2022-11-04T20:06:16.511Z,15.83
2022-11-04T20:08:45.602Z,15.33
2022-11-04T20:11:13.783Z,15.07
2022-11-04T20:13:47.348Z,14.53
2022-11-04T20:16:14.318Z,14.37
2022-11-04T20:18:41.191Z,15.03
2022-11-04T20:21:08.195Z,13.57
2022-11-04T20:23:36.146Z,13.67
2022-11-04T20:26:07.881Z,12.83
2022-11-04T20:28:34.772Z,11.33
2022-11-04T20:31:01.957Z,10.37
2022-11-04T20:33:29.056Z,10.40
2022-11-04T20:35:55.891Z,10.43
2022-11-04T20:38:23.739Z,9.70
2022-11-04T20:40:50.638Z,9.37
2022-11-04T20:43:17.538Z,13.43
2022-11-04T20:45:49.662Z,8.67
2022-11-04T20:48:19.034Z,8.20
2022-11-04T20:50:45.869Z,7.13
2022-11-04T20:53:12.883Z,7.63
2022-11-04T20:55:40.157Z,7.00
2022-11-04T20:58:07.244Z,6.20
2022-11-04T21:00:34.078Z,5.93
2022-11-04T21:03:00.834Z,6.33
2022-11-04T21:05:27.763Z,6.13
2022-11-04T21:07:55.269Z,6.60
2022-11-04T21:10:23.331Z,6.50
2022-11-04T21:12:52.062Z,6.43
2022-11-04T21:15:37.283Z,6.87
2022-11-04T21:18:04.286Z,8.33
2022-11-04T21:20:31.083Z,9.70
2022-11-04T21:22:57.972Z,10.53
2022-11-04T21:25:24.731Z,13.47
2022-11-04T21:27:52.353Z,9.63
2022-11-04T21:30:19.256Z,8.47
2022-11-04T21:32:46.205Z,8.67
2022-11-04T21:35:13.039Z,7.30
2022-11-04T21:37:39.915Z,7.10
2022-11-04T21:40:07.996Z,6.67
2022-11-04T21:42:34.994Z,7.07
2022-11-04T21:45:01.836Z,7.03
2022-11-04T21:47:29.524Z,7.53
2022-11-04T21:49:56.345Z,7.07
2022-11-04T21:52:23.267Z,6.43
2022-11-04T21:54:51.164Z,8.93
2022-11-04T21:57:18.235Z,8.07
2022-11-04T21:59:45.130Z,6.67
2022-11-04T22:02:12.268Z,6.37
2022-11-04T22:04:39.319Z,7.20
2022-11-04T22:07:06.503Z,7.70
2022-11-04T22:09:33.456Z,7.43
2022-11-04T22:12:00.319Z,7.30
2022-11-04T22:14:28.331Z,7.83
2022-11-04T22:16:55.481Z,7.70
2022-11-04T22:19:22.292Z,6.93
2022-11-04T22:21:49.086Z,7.33
2022-11-04T22:24:18.326Z,7.40
2022-11-04T22:26:46.061Z,7.17
2022-11-04T22:29:13.213Z,8.27
2022-11-04T22:31:41.692Z,7.57
2022-11-04T22:34:09.840Z,8.27
2022-11-04T22:36:38.002Z,7.83
2022-11-04T22:39:05.833Z,7.50
2022-11-04T22:41:35.637Z,7.93
2022-11-04T22:44:03.542Z,8.43
2022-11-04T22:46:31.975Z,7.37
2022-11-04T22:49:02.482Z,7.60
2022-11-04T22:51:31.439Z,8.47
2022-11-04T22:54:04.588Z,7.30
2022-11-04T22:56:33.980Z,8.20
2022-11-04T22:59:01.345Z,7.00
2022-11-04T23:01:28.654Z,7.70
2022-11-04T23:03:56.873Z,8.30
2022-11-04T23:06:24.978Z,8.00
2022-11-04T23:08:59.653Z,7.53
2022-11-04T23:11:47.481Z,8.23
2022-11-04T23:14:34.054Z,7.33
2022-11-04T23:17:19.709Z,8.07
2022-11-04T23:19:46.992Z,8.43
2022-11-04T23:22:32.827Z,8.60
2022-11-04T23:25:06.029Z,9.40
2022-11-04T23:27:59.447Z,9.43
2022-11-04T23:30:27.650Z,9.83
2022-11-04T23:33:40.935Z,11.20
2022-11-04T23:36:27.292Z,9.40
2022-11-04T23:38:54.599Z,9.10
2022-11-04T23:41:40.374Z,9.67
2022-11-04T23:44:27.597Z,8.33
2022-11-04T23:47:13.424Z,8.37
2022-11-04T23:49:59.214Z,8.63
2022-11-04T23:52:44.883Z,7.67
2022-11-04T23:55:30.853Z,13.00
2022-11-04T23:58:16.564Z,9.53
